sensor_id;sensor_type;location;lat;lon;timestamp;pressure;altitude;pressure_sealevel;temperature;humidity
57412;BME280;43247;52.828;-8.980;2022-10-31T00:01:27;100125.78;;;24.75;59.81
57412;BME280;43247;52.828;-8.980;2022-10-31T00:03:56;100117.99;;;24.76;59.79
57412;BME280;43247;52.828;-8.980;2022-10-31T00:06:27;100113.48;;;24.70;59.90
57412;BME280;43247;52.828;-8.980;2022-10-31T00:08:58;100115.37;;;24.75;59.76
57412;BME280;43247;52.828;-8.980;2022-10-31T00:11:27;100112.12;;;24.66;59.99
57412;BME280;43247;52.828;-8.980;2022-10-31T00:13:58;100110.44;;;24.70;59.90
57412;BME280;43247;52.828;-8.980;2022-10-31T00:16:28;100105.85;;;24.76;59.67
57412;BME280;43247;52.828;-8.980;2022-10-31T00:19:00;100102.56;;;24.75;59.77
57412;BME280;43247;52.828;-8.980;2022-10-31T00:21:29;100100.59;;;24.72;59.81
57412;BME280;43247;52.828;-8.980;2022-10-31T00:23:59;100091.70;;;24.72;59.80
57412;BME280;43247;52.828;-8.980;2022-10-31T00:26:30;100085.07;;;24.70;59.77
57412;BME280;43247;52.828;-8.980;2022-10-31T00:28:59;100086.90;;;24.67;59.81
57412;BME280;43247;52.828;-8.980;2022-10-31T00:31:30;100088.33;;;24.72;59.73
57412;BME280;43247;52.828;-8.980;2022-10-31T00:34:00;100085.45;;;24.67;59.82
57412;BME280;43247;52.828;-8.980;2022-10-31T00:36:30;100091.48;;;24.72;59.61
57412;BME280;43247;52.828;-8.980;2022-10-31T00:39:00;100092.09;;;24.60;59.79
57412;BME280;43247;52.828;-8.980;2022-10-31T00:41:31;100085.33;;;24.56;59.79
57412;BME280;43247;52.828;-8.980;2022-10-31T00:44:01;100082.12;;;24.54;59.74
57412;BME280;43247;52.828;-8.980;2022-10-31T00:46:31;100078.35;;;24.53;59.59
57412;BME280;43247;52.828;-8.980;2022-10-31T00:49:02;100075.35;;;24.64;59.24
57412;BME280;43247;52.828;-8.980;2022-10-31T00:51:32;100074.52;;;24.40;59.80
57412;BME280;43247;52.828;-8.980;2022-10-31T00:54:03;100074.99;;;24.50;59.45
57412;BME280;43247;52.828;-8.980;2022-10-31T00:56:33;100074.94;;;24.50;59.35
57412;BME280;43247;52.828;-8.980;2022-10-31T00:59:04;100066.32;;;24.53;59.22
57412;BME280;43247;52.828;-8.980;2022-10-31T01:01:34;100064.75;;;24.53;59.15
57412;BME280;43247;52.828;-8.980;2022-10-31T01:04:05;100070.64;;;24.43;59.37
57412;BME280;43247;52.828;-8.980;2022-10-31T01:06:35;100076.94;;;24.48;59.19
57412;BME280;43247;52.828;-8.980;2022-10-31T01:09:06;100071.72;;;24.50;58.99
57412;BME280;43247;52.828;-8.980;2022-10-31T01:11:36;100070.81;;;24.47;59.08
57412;BME280;43247;52.828;-8.980;2022-10-31T01:14:08;100070.70;;;24.40;59.20
57412;BME280;43247;52.828;-8.980;2022-10-31T01:16:37;100065.10;;;24.31;59.35
57412;BME280;43247;52.828;-8.980;2022-10-31T01:19:07;100060.33;;;24.32;59.26
57412;BME280;43247;52.828;-8.980;2022-10-31T01:21:38;100062.27;;;24.35;59.19
57412;BME280;43247;52.828;-8.980;2022-10-31T01:24:08;100060.86;;;24.52;58.66
57412;BME280;43247;52.828;-8.980;2022-10-31T01:26:38;100061.79;;;24.49;58.68
57412;BME280;43247;52.828;-8.980;2022-10-31T01:29:09;100059.04;;;24.41;58.84
57412;BME280;43247;52.828;-8.980;2022-10-31T01:31:39;100053.38;;;24.37;58.92
57412;BME280;43247;52.828;-8.980;2022-10-31T01:34:13;100048.23;;;24.42;58.73
57412;BME280;43247;52.828;-8.980;2022-10-31T01:36:40;100043.43;;;24.35;58.86
57412;BME280;43247;52.828;-8.980;2022-10-31T01:39:12;100047.14;;;24.47;58.55
57412;BME280;43247;52.828;-8.980;2022-10-31T01:41:43;100047.48;;;24.33;58.82
57412;BME280;43247;52.828;-8.980;2022-10-31T01:46:45;100043.66;;;24.33;58.81
57412;BME280;43247;52.828;-8.980;2022-10-31T01:49:15;100039.02;;;24.33;58.74
57412;BME280;43247;52.828;-8.980;2022-10-31T01:51:46;100038.86;;;24.35;58.68
57412;BME280;43247;52.828;-8.980;2022-10-31T01:54:15;100039.41;;;24.38;58.59
57412;BME280;43247;52.828;-8.980;2022-10-31T01:56:45;100038.50;;;24.29;58.74
57412;BME280;43247;52.828;-8.980;2022-10-31T01:59:16;100037.64;;;24.37;58.52
57412;BME280;43247;52.828;-8.980;2022-10-31T02:01:44;100038.70;;;24.31;58.68
57412;BME280;43247;52.828;-8.980;2022-10-31T02:04:14;100041.15;;;24.27;58.74
57412;BME280;43247;52.828;-8.980;2022-10-31T02:06:48;100040.92;;;24.42;58.32
57412;BME280;43247;52.828;-8.980;2022-10-31T02:09:15;100036.55;;;24.33;58.54
57412;BME280;43247;52.828;-8.980;2022-10-31T02:11:45;100039.81;;;24.27;58.64
57412;BME280;43247;52.828;-8.980;2022-10-31T02:14:16;100037.39;;;24.37;58.42
57412;BME280;43247;52.828;-8.980;2022-10-31T02:16:46;100039.82;;;24.41;58.28
57412;BME280;43247;52.828;-8.980;2022-10-31T02:19:21;100033.38;;;24.41;58.21
57412;BME280;43247;52.828;-8.980;2022-10-31T02:21:52;100032.96;;;24.32;58.46
57412;BME280;43247;52.828;-8.980;2022-10-31T02:24:29;100025.29;;;24.27;58.55
57412;BME280;43247;52.828;-8.980;2022-10-31T02:26:57;100025.88;;;24.27;58.53
57412;BME280;43247;52.828;-8.980;2022-10-31T02:29:30;100019.10;;;24.25;58.57
57412;BME280;43247;52.828;-8.980;2022-10-31T02:31:54;100026.33;;;24.36;58.26
57412;BME280;43247;52.828;-8.980;2022-10-31T02:34:22;100020.37;;;24.27;58.47
57412;BME280;43247;52.828;-8.980;2022-10-31T02:36:54;100026.56;;;24.26;58.47
57412;BME280;43247;52.828;-8.980;2022-10-31T02:39:24;100024.32;;;24.34;58.26
57412;BME280;43247;52.828;-8.980;2022-10-31T02:41:56;100015.63;;;24.25;58.43
57412;BME280;43247;52.828;-8.980;2022-10-31T02:44:26;100015.87;;;24.31;58.30
57412;BME280;43247;52.828;-8.980;2022-10-31T02:46:54;100015.04;;;24.21;58.52
57412;BME280;43247;52.828;-8.980;2022-10-31T02:49:26;100010.30;;;24.31;58.27
57412;BME280;43247;52.828;-8.980;2022-10-31T02:51:51;100012.43;;;24.26;58.37
57412;BME280;43247;52.828;-8.980;2022-10-31T02:54:23;100006.31;;;24.39;58.06
57412;BME280;43247;52.828;-8.980;2022-10-31T02:56:56;100002.61;;;24.23;58.41
57412;BME280;43247;52.828;-8.980;2022-10-31T02:59:23;100005.09;;;24.18;58.56
57412;BME280;43247;52.828;-8.980;2022-10-31T03:02:06;100003.83;;;24.27;58.33
57412;BME280;43247;52.828;-8.980;2022-10-31T03:04:36;99993.58;;;24.31;58.20
57412;BME280;43247;52.828;-8.980;2022-10-31T03:06:56;99996.23;;;24.21;58.46
57412;BME280;43247;52.828;-8.980;2022-10-31T03:09:26;99997.67;;;24.25;58.35
57412;BME280;43247;52.828;-8.980;2022-10-31T03:11:58;99998.32;;;24.33;58.13
57412;BME280;43247;52.828;-8.980;2022-10-31T03:14:29;100002.43;;;24.42;57.94
57412;BME280;43247;52.828;-8.980;2022-10-31T03:16:56;100003.01;;;24.24;58.36
57412;BME280;43247;52.828;-8.980;2022-10-31T03:19:28;99999.22;;;24.31;58.20
57412;BME280;43247;52.828;-8.980;2022-10-31T03:21:58;99997.16;;;24.27;58.29
57412;BME280;43247;52.828;-8.980;2022-10-31T03:24:28;99995.32;;;24.26;58.29
57412;BME280;43247;52.828;-8.980;2022-10-31T03:26:57;99992.92;;;24.18;58.50
57412;BME280;43247;52.828;-8.980;2022-10-31T03:29:29;99991.00;;;24.36;58.06
57412;BME280;43247;52.828;-8.980;2022-10-31T03:32:00;99985.54;;;24.32;58.14
57412;BME280;43247;52.828;-8.980;2022-10-31T03:34:27;99982.48;;;24.23;58.36
57412;BME280;43247;52.828;-8.980;2022-10-31T03:37:00;99977.18;;;24.18;58.51
57412;BME280;43247;52.828;-8.980;2022-10-31T03:39:28;99973.11;;;24.27;58.27
57412;BME280;43247;52.828;-8.980;2022-10-31T03:42:02;99967.22;;;24.17;58.51
57412;BME280;43247;52.828;-8.980;2022-10-31T03:44:29;99963.83;;;24.31;58.13
57412;BME280;43247;52.828;-8.980;2022-10-31T03:46:59;99968.40;;;24.33;58.10
57412;BME280;43247;52.828;-8.980;2022-10-31T03:49:29;99957.42;;;24.15;58.52
57412;BME280;43247;52.828;-8.980;2022-10-31T03:52:02;99961.14;;;24.31;58.13
57412;BME280;43247;52.828;-8.980;2022-10-31T03:54:34;99958.48;;;24.14;58.56
57412;BME280;43247;52.828;-8.980;2022-10-31T03:57:05;99955.63;;;24.24;58.29
57412;BME280;43247;52.828;-8.980;2022-10-31T03:59:34;99952.63;;;24.24;58.28
57412;BME280;43247;52.828;-8.980;2022-10-31T04:02:05;99955.73;;;24.31;58.09
57412;BME280;43247;52.828;-8.980;2022-10-31T04:04:32;99956.04;;;24.39;57.89
57412;BME280;43247;52.828;-8.980;2022-10-31T04:07:03;99949.56;;;24.26;58.18
57412;BME280;43247;52.828;-8.980;2022-10-31T04:09:35;99951.98;;;24.30;58.07
57412;BME280;43247;52.828;-8.980;2022-10-31T04:12:04;99956.38;;;24.29;58.07
57412;BME280;43247;52.828;-8.980;2022-10-31T04:14:35;99952.44;;;24.23;58.23
57412;BME280;43247;52.828;-8.980;2022-10-31T04:17:07;99951.07;;;24.34;57.94
57412;BME280;43247;52.828;-8.980;2022-10-31T04:19:34;99951.57;;;24.40;57.78
57412;BME280;43247;52.828;-8.980;2022-10-31T04:22:04;99948.60;;;24.29;58.07
57412;BME280;43247;52.828;-8.980;2022-10-31T04:24:35;99951.54;;;24.22;58.16
57412;BME280;43247;52.828;-8.980;2022-10-31T04:27:05;99951.71;;;24.24;58.13
57412;BME280;43247;52.828;-8.980;2022-10-31T04:29:35;99946.99;;;24.32;57.98
57412;BME280;43247;52.828;-8.980;2022-10-31T04:32:05;99945.94;;;24.10;58.47
57412;BME280;43247;52.828;-8.980;2022-10-31T04:34:36;99936.91;;;24.24;58.12
57412;BME280;43247;52.828;-8.980;2022-10-31T04:37:06;99925.66;;;24.29;57.95
57412;BME280;43247;52.828;-8.980;2022-10-31T04:39:36;99919.47;;;24.31;57.92
57412;BME280;43247;52.828;-8.980;2022-10-31T04:42:07;99918.06;;;24.14;58.28
57412;BME280;43247;52.828;-8.980;2022-10-31T04:44:38;99924.71;;;24.36;57.76
57412;BME280;43247;52.828;-8.980;2022-10-31T04:47:08;99931.87;;;24.31;57.85
57412;BME280;43247;52.828;-8.980;2022-10-31T04:49:38;99987.09;;;24.31;57.84
57412;BME280;43247;52.828;-8.980;2022-10-31T04:52:09;100006.43;;;24.22;58.12
57412;BME280;43247;52.828;-8.980;2022-10-31T04:54:39;100005.46;;;24.22;58.11
57412;BME280;43247;52.828;-8.980;2022-10-31T04:57:10;100006.76;;;24.22;58.13
57412;BME280;43247;52.828;-8.980;2022-10-31T04:59:40;100007.07;;;24.16;58.32
57412;BME280;43247;52.828;-8.980;2022-10-31T05:02:10;100008.92;;;24.25;58.04
57412;BME280;43247;52.828;-8.980;2022-10-31T05:04:41;100007.92;;;24.33;57.77
57412;BME280;43247;52.828;-8.980;2022-10-31T05:07:11;100017.57;;;24.16;58.17
57412;BME280;43247;52.828;-8.980;2022-10-31T05:09:42;100023.17;;;24.23;58.03
57412;BME280;43247;52.828;-8.980;2022-10-31T05:12:12;100026.54;;;24.14;58.23
57412;BME280;43247;52.828;-8.980;2022-10-31T05:14:42;100031.95;;;24.25;57.91
57412;BME280;43247;52.828;-8.980;2022-10-31T05:17:13;100030.50;;;24.28;57.81
57412;BME280;43247;52.828;-8.980;2022-10-31T05:19:43;100039.75;;;24.28;57.80
57412;BME280;43247;52.828;-8.980;2022-10-31T05:22:14;100047.94;;;24.27;57.79
57412;BME280;43247;52.828;-8.980;2022-10-31T05:24:44;100049.83;;;24.16;58.04
57412;BME280;43247;52.828;-8.980;2022-10-31T05:27:14;100047.89;;;24.11;58.14
57412;BME280;43247;52.828;-8.980;2022-10-31T05:29:45;100047.50;;;24.22;57.80
57412;BME280;43247;52.828;-8.980;2022-10-31T05:32:15;100037.67;;;24.21;57.77
57412;BME280;43247;52.828;-8.980;2022-10-31T05:34:46;100035.94;;;24.25;57.64
57412;BME280;43247;52.828;-8.980;2022-10-31T05:37:16;100031.29;;;24.19;57.75
57412;BME280;43247;52.828;-8.980;2022-10-31T05:39:46;100030.61;;;24.21;57.69
57412;BME280;43247;52.828;-8.980;2022-10-31T05:42:17;100028.17;;;24.32;57.36
57412;BME280;43247;52.828;-8.980;2022-10-31T05:44:47;100029.85;;;24.17;57.82
57412;BME280;43247;52.828;-8.980;2022-10-31T05:47:18;100033.21;;;24.30;57.53
57412;BME280;43247;52.828;-8.980;2022-10-31T05:49:48;100036.78;;;24.29;57.54
57412;BME280;43247;52.828;-8.980;2022-10-31T05:52:19;100038.06;;;24.29;57.53
57412;BME280;43247;52.828;-8.980;2022-10-31T05:54:49;100035.42;;;24.24;57.60
57412;BME280;43247;52.828;-8.980;2022-10-31T05:57:19;100028.27;;;24.20;57.67
57412;BME280;43247;52.828;-8.980;2022-10-31T05:59:50;100033.59;;;24.28;57.47
57412;BME280;43247;52.828;-8.980;2022-10-31T06:02:20;100032.22;;;24.29;57.40
57412;BME280;43247;52.828;-8.980;2022-10-31T06:04:50;100035.94;;;24.27;57.42
57412;BME280;43247;52.828;-8.980;2022-10-31T06:07:21;100042.49;;;24.22;57.54
57412;BME280;43247;52.828;-8.980;2022-10-31T06:09:51;100040.75;;;24.20;57.60
57412;BME280;43247;52.828;-8.980;2022-10-31T06:12:22;100046.22;;;24.25;57.44
57412;BME280;43247;52.828;-8.980;2022-10-31T06:14:52;100049.27;;;24.07;57.89
57412;BME280;43247;52.828;-8.980;2022-10-31T06:17:22;100051.78;;;24.17;57.63
57412;BME280;43247;52.828;-8.980;2022-10-31T06:19:53;100047.91;;;24.16;57.65
57412;BME280;43247;52.828;-8.980;2022-10-31T06:22:23;100039.84;;;24.23;57.45
57412;BME280;43247;52.828;-8.980;2022-10-31T06:24:54;100040.73;;;24.12;57.77
57412;BME280;43247;52.828;-8.980;2022-10-31T06:27:24;100044.66;;;24.23;57.47
57412;BME280;43247;52.828;-8.980;2022-10-31T06:29:54;100045.08;;;24.22;57.47
57412;BME280;43247;52.828;-8.980;2022-10-31T06:32:25;100043.71;;;24.33;57.18
57412;BME280;43247;52.828;-8.980;2022-10-31T06:34:55;100049.99;;;24.14;57.69
57412;BME280;43247;52.828;-8.980;2022-10-31T06:37:26;100054.07;;;24.33;57.19
57412;BME280;43247;52.828;-8.980;2022-10-31T06:39:56;100051.50;;;24.18;57.51
57412;BME280;43247;52.828;-8.980;2022-10-31T06:42:27;100056.55;;;24.26;57.31
57412;BME280;43247;52.828;-8.980;2022-10-31T06:44:57;100069.02;;;24.12;57.67
57412;BME280;43247;52.828;-8.980;2022-10-31T06:47:27;100070.87;;;24.30;57.16
57412;BME280;43247;52.828;-8.980;2022-10-31T06:49:57;100068.23;;;24.06;57.74
57412;BME280;43247;52.828;-8.980;2022-10-31T06:52:28;100071.60;;;24.27;57.23
57412;BME280;43247;52.828;-8.980;2022-10-31T06:54:58;100094.30;;;24.28;57.19
57412;BME280;43247;52.828;-8.980;2022-10-31T06:57:29;100098.33;;;24.20;57.35
57412;BME280;43247;52.828;-8.980;2022-10-31T06:59:59;100070.05;;;24.26;57.16
57412;BME280;43247;52.828;-8.980;2022-10-31T07:02:29;100058.69;;;24.16;57.36
57412;BME280;43247;52.828;-8.980;2022-10-31T07:05:00;100061.18;;;24.02;57.72
57412;BME280;43247;52.828;-8.980;2022-10-31T07:07:30;100059.21;;;24.16;57.35
57412;BME280;43247;52.828;-8.980;2022-10-31T07:10:01;100057.57;;;24.27;57.03
57412;BME280;43247;52.828;-8.980;2022-10-31T07:12:31;100069.57;;;24.28;56.99
57412;BME280;43247;52.828;-8.980;2022-10-31T07:15:02;100066.34;;;24.34;56.89
57412;BME280;43247;52.828;-8.980;2022-10-31T07:17:32;100067.97;;;24.31;56.86
57412;BME280;43247;52.828;-8.980;2022-10-31T07:20:05;100072.44;;;24.33;56.81
57412;BME280;43247;52.828;-8.980;2022-10-31T07:22:35;100071.79;;;24.18;57.14
57412;BME280;43247;52.828;-8.980;2022-10-31T07:25:05;100074.98;;;24.14;57.21
57412;BME280;43247;52.828;-8.980;2022-10-31T07:27:36;100087.21;;;24.13;57.23
57412;BME280;43247;52.828;-8.980;2022-10-31T07:30:07;100088.57;;;24.22;56.99
57412;BME280;43247;52.828;-8.980;2022-10-31T07:32:38;100096.04;;;24.15;57.14
57412;BME280;43247;52.828;-8.980;2022-10-31T07:35:07;100105.02;;;24.14;57.16
57412;BME280;43247;52.828;-8.980;2022-10-31T07:37:37;100097.49;;;24.07;57.27
57412;BME280;43247;52.828;-8.980;2022-10-31T07:40:09;100096.02;;;24.13;57.17
57412;BME280;43247;52.828;-8.980;2022-10-31T07:42:38;100096.06;;;24.16;57.02
57412;BME280;43247;52.828;-8.980;2022-10-31T07:45:10;100099.82;;;24.28;56.71
57412;BME280;43247;52.828;-8.980;2022-10-31T07:47:39;100104.34;;;24.21;56.88
57412;BME280;43247;52.828;-8.980;2022-10-31T07:50:12;100097.96;;;24.18;56.88
57412;BME280;43247;52.828;-8.980;2022-10-31T07:52:39;100082.04;;;24.14;56.99
57412;BME280;43247;52.828;-8.980;2022-10-31T07:55:10;100086.99;;;24.07;57.14
57412;BME280;43247;52.828;-8.980;2022-10-31T07:57:40;100107.99;;;24.09;57.06
57412;BME280;43247;52.828;-8.980;2022-10-31T08:00:11;100107.09;;;24.24;56.66
57412;BME280;43247;52.828;-8.980;2022-10-31T08:02:41;100118.20;;;24.12;56.91
57412;BME280;43247;52.828;-8.980;2022-10-31T08:05:11;100119.52;;;24.16;56.79
57412;BME280;43247;52.828;-8.980;2022-10-31T08:07:42;100134.59;;;24.17;56.74
57412;BME280;43247;52.828;-8.980;2022-10-31T08:10:12;100131.29;;;24.05;57.16
57412;BME280;43247;52.828;-8.980;2022-10-31T08:12:42;100158.31;;;24.09;57.17
57412;BME280;43247;52.828;-8.980;2022-10-31T08:15:13;100168.05;;;24.23;56.93
57412;BME280;43247;52.828;-8.980;2022-10-31T08:17:43;100159.46;;;24.16;57.05
57412;BME280;43247;52.828;-8.980;2022-10-31T08:20:14;100159.98;;;24.11;57.08
57412;BME280;43247;52.828;-8.980;2022-10-31T08:25:15;100146.36;;;24.24;56.72
57412;BME280;43247;52.828;-8.980;2022-10-31T08:27:49;100147.21;;;24.13;56.91
57412;BME280;43247;52.828;-8.980;2022-10-31T08:30:15;100141.30;;;24.13;56.86
57412;BME280;43247;52.828;-8.980;2022-10-31T08:32:47;100126.10;;;24.07;56.95
57412;BME280;43247;52.828;-8.980;2022-10-31T08:35:16;100134.36;;;24.11;56.86
57412;BME280;43247;52.828;-8.980;2022-10-31T08:37:52;100141.62;;;24.05;56.98
57412;BME280;43247;52.828;-8.980;2022-10-31T08:40:17;100134.89;;;24.16;56.71
57412;BME280;43247;52.828;-8.980;2022-10-31T08:42:47;100137.80;;;24.06;56.92
57412;BME280;43247;52.828;-8.980;2022-10-31T08:45:17;100131.37;;;24.05;56.95
57412;BME280;43247;52.828;-8.980;2022-10-31T08:47:48;100129.62;;;24.11;56.80
57412;BME280;43247;52.828;-8.980;2022-10-31T08:50:18;100140.35;;;24.04;56.96
57412;BME280;43247;52.828;-8.980;2022-10-31T08:52:48;100154.91;;;24.04;56.97
57412;BME280;43247;52.828;-8.980;2022-10-31T08:55:19;100159.78;;;24.09;56.81
57412;BME280;43247;52.828;-8.980;2022-10-31T08:57:54;100172.64;;;24.21;56.53
57412;BME280;43247;52.828;-8.980;2022-10-31T09:00:20;100191.20;;;23.99;57.17
57412;BME280;43247;52.828;-8.980;2022-10-31T09:02:55;100197.23;;;24.08;56.93
57412;BME280;43247;52.828;-8.980;2022-10-31T09:05:20;100199.26;;;24.35;56.30
57412;BME280;43247;52.828;-8.980;2022-10-31T09:07:51;100205.78;;;24.35;56.28
57412;BME280;43247;52.828;-8.980;2022-10-31T09:10:21;100204.68;;;24.35;56.28
57412;BME280;43247;52.828;-8.980;2022-10-31T09:12:56;100204.90;;;24.41;56.18
57412;BME280;43247;52.828;-8.980;2022-10-31T09:15:23;100204.21;;;24.36;56.32
57412;BME280;43247;52.828;-8.980;2022-10-31T09:17:53;100208.05;;;24.44;56.17
57412;BME280;43247;52.828;-8.980;2022-10-31T09:20:24;100206.18;;;24.36;56.34
57412;BME280;43247;52.828;-8.980;2022-10-31T09:22:58;100207.18;;;24.41;56.28
57412;BME280;43247;52.828;-8.980;2022-10-31T09:25:24;100207.27;;;24.20;56.76
57412;BME280;43247;52.828;-8.980;2022-10-31T09:27:56;100207.06;;;24.15;56.87
57412;BME280;43247;52.828;-8.980;2022-10-31T09:30:26;100201.73;;;24.19;56.72
57412;BME280;43247;52.828;-8.980;2022-10-31T09:32:55;100191.87;;;24.17;56.75
57412;BME280;43247;52.828;-8.980;2022-10-31T09:35:26;100175.88;;;24.13;56.82
57412;BME280;43247;52.828;-8.980;2022-10-31T09:37:56;100169.64;;;24.16;56.73
57412;BME280;43247;52.828;-8.980;2022-10-31T09:40:32;100173.78;;;24.12;56.78
57412;BME280;43247;52.828;-8.980;2022-10-31T09:43:03;100167.62;;;24.22;56.57
57412;BME280;43247;52.828;-8.980;2022-10-31T09:45:31;100160.78;;;24.16;56.71
57412;BME280;43247;52.828;-8.980;2022-10-31T09:48:09;100153.48;;;23.94;57.25
57412;BME280;43247;52.828;-8.980;2022-10-31T09:50:36;100154.34;;;24.02;57.03
57412;BME280;43247;52.828;-8.980;2022-10-31T09:53:00;100155.14;;;24.12;56.80
57412;BME280;43247;52.828;-8.980;2022-10-31T09:55:35;100149.68;;;24.03;56.95
57412;BME280;43247;52.828;-8.980;2022-10-31T09:57:59;100150.23;;;24.11;56.76
57412;BME280;43247;52.828;-8.980;2022-10-31T10:00:29;100152.10;;;24.11;56.77
57412;BME280;43247;52.828;-8.980;2022-10-31T10:03:07;100160.85;;;24.04;56.96
57412;BME280;43247;52.828;-8.980;2022-10-31T10:05:34;100172.10;;;24.06;56.92
57412;BME280;43247;52.828;-8.980;2022-10-31T10:08:07;100179.52;;;24.14;56.68
57412;BME280;43247;52.828;-8.980;2022-10-31T10:10:40;100183.45;;;24.05;56.91
57412;BME280;43247;52.828;-8.980;2022-10-31T10:13:11;100187.91;;;24.00;57.04
57412;BME280;43247;52.828;-8.980;2022-10-31T10:15:45;100189.43;;;24.17;56.58
57412;BME280;43247;52.828;-8.980;2022-10-31T10:18:08;100197.89;;;24.03;56.91
57412;BME280;43247;52.828;-8.980;2022-10-31T10:20:39;100205.07;;;24.12;56.69
57412;BME280;43247;52.828;-8.980;2022-10-31T10:23:19;100206.86;;;24.09;56.77
57412;BME280;43247;52.828;-8.980;2022-10-31T10:25:37;100209.16;;;23.97;57.07
57412;BME280;43247;52.828;-8.980;2022-10-31T10:28:12;100216.55;;;24.17;56.59
57412;BME280;43247;52.828;-8.980;2022-10-31T10:30:39;100217.22;;;24.19;56.52
57412;BME280;43247;52.828;-8.980;2022-10-31T10:33:09;100215.62;;;24.11;56.72
57412;BME280;43247;52.828;-8.980;2022-10-31T10:35:38;100210.96;;;24.02;56.95
57412;BME280;43247;52.828;-8.980;2022-10-31T10:38:13;100206.80;;;24.03;56.90
57412;BME280;43247;52.828;-8.980;2022-10-31T10:40:35;100205.47;;;24.02;56.97
57412;BME280;43247;52.828;-8.980;2022-10-31T10:43:17;100203.60;;;23.98;57.06
57412;BME280;43247;52.828;-8.980;2022-10-31T10:45:37;100196.57;;;24.04;56.93
57412;BME280;43247;52.828;-8.980;2022-10-31T10:48:13;100193.63;;;24.05;56.88
57412;BME280;43247;52.828;-8.980;2022-10-31T10:50:41;100189.40;;;24.11;56.69
57412;BME280;43247;52.828;-8.980;2022-10-31T10:53:16;100190.59;;;24.08;56.79
57412;BME280;43247;52.828;-8.980;2022-10-31T10:55:43;100187.07;;;24.09;56.79
57412;BME280;43247;52.828;-8.980;2022-10-31T10:58:09;100184.88;;;24.07;56.83
57412;BME280;43247;52.828;-8.980;2022-10-31T11:00:41;100184.70;;;24.02;56.98
57412;BME280;43247;52.828;-8.980;2022-10-31T11:03:09;100178.02;;;24.13;56.71
57412;BME280;43247;52.828;-8.980;2022-10-31T11:05:50;100179.03;;;24.01;56.99
57412;BME280;43247;52.828;-8.980;2022-10-31T11:08:11;100178.09;;;24.01;57.03
57412;BME280;43247;52.828;-8.980;2022-10-31T11:10:40;100178.19;;;24.07;56.83
57412;BME280;43247;52.828;-8.980;2022-10-31T11:13:20;100191.85;;;23.99;57.05
57412;BME280;43247;52.828;-8.980;2022-10-31T11:15:51;100202.02;;;24.14;56.67
57412;BME280;43247;52.828;-8.980;2022-10-31T11:18:19;100201.94;;;24.05;56.84
57412;BME280;43247;52.828;-8.980;2022-10-31T11:20:50;100200.10;;;24.10;56.75
57412;BME280;43247;52.828;-8.980;2022-10-31T11:23:18;100193.42;;;24.16;56.55
57412;BME280;43247;52.828;-8.980;2022-10-31T11:25:48;100185.60;;;24.10;56.74
57412;BME280;43247;52.828;-8.980;2022-10-31T11:28:13;100188.97;;;24.06;56.79
57412;BME280;43247;52.828;-8.980;2022-10-31T11:30:46;100192.91;;;24.10;56.68
57412;BME280;43247;52.828;-8.980;2022-10-31T11:33:19;100186.91;;;24.16;56.50
57412;BME280;43247;52.828;-8.980;2022-10-31T11:35:44;100184.08;;;24.05;56.76
57412;BME280;43247;52.828;-8.980;2022-10-31T11:38:18;100182.11;;;24.07;56.69
57412;BME280;43247;52.828;-8.980;2022-10-31T11:40:51;100176.60;;;24.07;56.65
57412;BME280;43247;52.828;-8.980;2022-10-31T11:43:17;100179.40;;;23.94;56.98
57412;BME280;43247;52.828;-8.980;2022-10-31T11:45:46;100182.32;;;23.98;56.90
57412;BME280;43247;52.828;-8.980;2022-10-31T11:48:18;100180.54;;;24.15;56.43
57412;BME280;43247;52.828;-8.980;2022-10-31T11:50:49;100186.79;;;24.01;56.78
57412;BME280;43247;52.828;-8.980;2022-10-31T11:53:20;100192.22;;;23.95;56.91
57412;BME280;43247;52.828;-8.980;2022-10-31T11:55:48;100195.25;;;24.02;56.74
57412;BME280;43247;52.828;-8.980;2022-10-31T11:58:23;100195.00;;;24.04;56.66
57412;BME280;43247;52.828;-8.980;2022-10-31T12:00:50;100191.82;;;24.12;56.44
57412;BME280;43247;52.828;-8.980;2022-10-31T12:03:28;100194.57;;;24.02;56.64
57412;BME280;43247;52.828;-8.980;2022-10-31T12:05:53;100192.84;;;24.12;56.39
57412;BME280;43247;52.828;-8.980;2022-10-31T12:08:19;100194.49;;;23.95;56.69
57412;BME280;43247;52.828;-8.980;2022-10-31T12:10:56;100195.82;;;23.99;56.58
57412;BME280;43247;52.828;-8.980;2022-10-31T12:13:30;100194.20;;;24.01;56.48
57412;BME280;43247;52.828;-8.980;2022-10-31T12:15:54;100195.35;;;24.02;56.45
57412;BME280;43247;52.828;-8.980;2022-10-31T12:18:32;100196.20;;;24.09;56.24
57412;BME280;43247;52.828;-8.980;2022-10-31T12:21:01;100196.45;;;24.04;56.33
57412;BME280;43247;52.828;-8.980;2022-10-31T12:23:28;100188.24;;;24.00;56.45
57412;BME280;43247;52.828;-8.980;2022-10-31T12:25:57;100178.62;;;24.14;56.19
57412;BME280;43247;52.828;-8.980;2022-10-31T12:28:39;100172.58;;;24.13;56.39
57412;BME280;43247;52.828;-8.980;2022-10-31T12:31:02;100168.54;;;24.19;56.33
57412;BME280;43247;52.828;-8.980;2022-10-31T12:33:34;100161.68;;;24.19;56.36
57412;BME280;43247;52.828;-8.980;2022-10-31T12:36:11;100158.94;;;24.19;56.33
57412;BME280;43247;52.828;-8.980;2022-10-31T12:38:40;100157.52;;;24.18;56.35
57412;BME280;43247;52.828;-8.980;2022-10-31T12:41:09;100159.01;;;24.19;56.31
57412;BME280;43247;52.828;-8.980;2022-10-31T12:43:35;100154.27;;;24.23;56.19
57412;BME280;43247;52.828;-8.980;2022-10-31T12:45:56;100149.28;;;24.18;56.30
57412;BME280;43247;52.828;-8.980;2022-10-31T12:48:39;100144.32;;;24.18;56.29
57412;BME280;43247;52.828;-8.980;2022-10-31T12:51:00;100140.27;;;24.21;56.23
57412;BME280;43247;52.828;-8.980;2022-10-31T12:53:38;100136.73;;;24.24;56.13
57412;BME280;43247;52.828;-8.980;2022-10-31T12:56:06;100132.66;;;24.19;56.26
57412;BME280;43247;52.828;-8.980;2022-10-31T12:58:32;100128.50;;;24.21;56.21
57412;BME280;43247;52.828;-8.980;2022-10-31T13:01:06;100125.16;;;24.09;56.49